Time;durP1;ratioP1;P1;durP2;ratioP2;P2;SDS_P1;SDS_P2;PMS_P1;PMS_P2;Temp;Humidity;BMP_temperature;BMP_pressure;BME280_temperature;BME280_humidity;BME280_pressure;Samples;Min_cycle;Max_cycle;Signal;HPM_P1;HPM_P2
2024/04/19 00:01:26;;;;;;;8.68;6.63;;;;;;;3.70;100.00;92563.94;5483232;26;20017;-76
2024/04/19 00:03:51;;;;;;;7.75;6.00;;;;;;;3.31;100.00;92499.16;5483880;26;19998;-76
2024/04/19 00:06:17;;;;;;;8.45;6.47;;;;;;;3.54;100.00;92554.03;5477743;26;20001;-76
2024/04/19 00:08:42;;;;;;;9.18;6.65;;;;;;;3.56;100.00;92549.56;5467189;26;20031;-76
2024/04/19 00:11:08;;;;;;;8.48;6.72;;;;;;;3.58;100.00;92563.66;5478696;26;20033;-77
2024/04/19 00:13:33;;;;;;;7.80;6.55;;;;;;;3.28;100.00;92505.38;5482894;26;20024;-76
2024/04/19 00:15:59;;;;;;;7.63;6.43;;;;;;;3.56;100.00;92541.94;5472852;26;20091;-76
2024/04/19 00:18:26;;;;;;;9.73;6.68;;;;;;;3.31;100.00;92512.66;5482961;26;20442;-76
2024/04/19 00:20:54;;;;;;;8.77;6.53;;;;;;;3.58;100.00;92540.00;5482995;26;19994;-76
2024/04/19 00:23:20;;;;;;;7.97;6.47;;;;;;;3.32;100.00;92504.06;5475001;26;20078;-76
2024/04/19 00:25:45;;;;;;;8.88;6.30;;;;;;;2.75;100.00;92424.50;5480030;26;19998;-76
2024/04/19 00:28:11;;;;;;;10.15;6.22;;;;;;;3.44;100.00;92547.53;5472324;26;20070;-76
2024/04/19 00:30:36;;;;;;;9.45;6.75;;;;;;;3.35;100.00;92530.84;5483350;26;20002;-77
2024/04/19 00:33:02;;;;;;;8.30;6.18;;;;;;;3.43;100.00;92545.16;5478652;26;20517;-77
2024/04/19 00:35:27;;;;;;;8.80;6.55;;;;;;;3.34;100.00;92524.19;5480835;26;20000;-76
2024/04/19 00:37:52;;;;;;;9.05;6.30;;;;;;;3.28;100.00;92525.69;5483722;26;20340;-77
2024/04/19 00:40:18;;;;;;;8.70;6.20;;;;;;;3.32;100.00;92534.53;5483122;26;19998;-76
2024/04/19 00:42:44;;;;;;;9.88;7.78;;;;;;;3.04;100.00;92491.31;5474556;26;20003;-76
2024/04/19 00:45:31;;;;;;;13.75;10.27;;;;;;;3.11;100.00;92511.69;5470133;26;20034;-76
2024/04/19 00:47:57;;;;;;;10.55;8.20;;;;;;;3.27;100.00;92544.44;5475905;26;20030;-76
2024/04/19 00:50:24;;;;;;;11.05;7.40;;;;;;;3.31;100.00;92537.22;5482886;26;19997;-75
2024/04/19 00:52:49;;;;;;;9.80;7.13;;;;;;;3.21;100.00;92533.22;5480325;26;20013;-76
2024/04/19 00:55:15;;;;;;;9.25;6.57;;;;;;;3.03;100.00;92502.44;5481303;26;19998;-76
2024/04/19 00:57:42;;;;;;;7.40;5.88;;;;;;;3.02;100.00;92500.84;5479335;26;19994;-76
2024/04/19 01:00:09;;;;;;;10.80;6.50;;;;;;;2.98;100.00;92490.28;5480097;26;19994;-76
2024/04/19 01:02:35;;;;;;;8.80;6.40;;;;;;;2.93;100.00;92492.59;5473495;26;20010;-77
2024/04/19 01:05:01;;;;;;;8.52;6.82;;;;;;;3.29;100.00;92542.50;5479464;26;19998;-76
2024/04/19 01:07:27;;;;;;;11.15;7.07;;;;;;;3.30;100.00;92551.69;5475312;26;19994;-75
2024/04/19 01:09:53;;;;;;;9.27;6.85;;;;;;;3.23;100.00;92529.75;5482436;26;20021;-76
2024/04/19 01:12:19;;;;;;;9.93;6.47;;;;;;;3.26;100.00;92534.44;5473385;26;20364;-76
2024/04/19 01:14:45;;;;;;;8.30;6.72;;;;;;;3.07;100.00;92508.72;5478664;26;20406;-77
2024/04/19 01:17:11;;;;;;;8.10;6.35;;;;;;;3.28;100.00;92547.75;5482367;26;19998;-76
2024/04/19 01:19:36;;;;;;;8.45;5.95;;;;;;;3.26;100.00;92539.53;5481590;26;20039;-76
2024/04/19 01:22:03;;;;;;;10.98;7.15;;;;;;;2.85;100.00;92488.41;5480105;26;19990;-77
2024/04/19 01:24:34;;;;;;;9.38;6.47;;;;;;;3.24;100.00;92546.56;5483110;26;19994;-76
2024/04/19 01:27:00;;;;;;;9.57;7.35;;;;;;;3.06;100.00;92535.06;5479279;26;19991;-76
2024/04/19 01:29:25;;;;;;;9.65;6.88;;;;;;;3.09;100.00;92524.53;5481533;26;20013;-76
2024/04/19 01:31:51;;;;;;;8.90;6.95;;;;;;;2.91;100.00;92510.50;5482719;26;20065;-76
2024/04/19 01:34:18;;;;;;;9.00;7.18;;;;;;;2.84;100.00;92496.97;5479072;26;20007;-77
2024/04/19 01:36:44;;;;;;;9.27;6.93;;;;;;;3.11;100.00;92537.06;5479488;26;20058;-76
2024/04/19 01:39:09;;;;;;;9.82;6.97;;;;;;;2.97;100.00;92521.72;5479318;26;20588;-77
2024/04/19 01:41:35;;;;;;;8.48;5.95;;;;;;;2.97;100.00;92520.91;5471845;26;20007;-76
2024/04/19 01:44:01;;;;;;;7.45;5.50;;;;;;;3.04;100.00;92550.47;5477493;26;20466;-76
2024/04/19 01:46:26;;;;;;;6.68;5.35;;;;;;;3.02;100.00;92544.75;5469942;26;20006;-76
2024/04/19 01:48:51;;;;;;;6.65;5.22;;;;;;;2.99;100.00;92551.94;5478070;26;20458;-76
2024/04/19 01:51:17;;;;;;;7.55;5.05;;;;;;;2.66;100.00;92510.06;5482492;26;20002;-76
2024/04/19 01:53:42;;;;;;;9.77;5.18;;;;;;;2.69;100.00;92529.19;5481975;26;19994;-76
2024/04/19 01:56:08;;;;;;;9.10;5.60;;;;;;;2.69;100.00;92542.69;5482518;26;20408;-76
2024/04/19 01:58:33;;;;;;;6.88;4.57;;;;;;;2.77;100.00;92549.38;5475034;26;20005;-77
2024/04/19 02:00:59;;;;;;;9.30;5.53;;;;;;;2.59;100.00;92525.19;5482270;26;20005;-76
2024/04/19 02:03:24;;;;;;;6.88;5.57;;;;;;;2.63;100.00;92531.47;5482089;26;20004;-76
2024/04/19 02:05:50;;;;;;;8.07;6.15;;;;;;;2.44;100.00;92512.53;5476952;26;19998;-78
2024/04/19 02:08:15;;;;;;;7.68;5.57;;;;;;;2.51;100.00;92528.59;5480463;26;20010;-78
2024/04/19 02:10:41;;;;;;;8.20;6.13;;;;;;;2.78;100.00;92563.66;5481778;26;20315;-77
2024/04/19 02:13:06;;;;;;;7.78;5.07;;;;;;;2.85;100.00;92576.38;5478422;26;20009;-77
2024/04/19 02:15:32;;;;;;;8.10;5.60;;;;;;;2.57;100.00;92532.19;5476593;26;20397;-77
2024/04/19 02:17:57;;;;;;;6.15;5.20;;;;;;;2.80;100.00;92561.72;5476919;26;20020;-77
2024/04/19 02:20:23;;;;;;;6.68;4.95;;;;;;;2.44;100.00;92517.59;5481149;26;20529;-78
2024/04/19 02:22:48;;;;;;;7.15;5.50;;;;;;;2.49;100.00;92525.47;5481772;26;20010;-77
2024/04/19 02:25:14;;;;;;;7.30;5.30;;;;;;;2.84;100.00;92572.28;5479525;26;20378;-77
2024/04/19 02:33:07;;;;;;;8.77;6.60;;;;;;;2.82;100.00;92574.22;5480445;26;20005;-77
2024/04/19 02:35:33;;;;;;;12.65;7.20;;;;;;;2.35;100.00;92491.56;5479262;26;20002;-77
2024/04/19 02:37:58;;;;;;;9.02;6.78;;;;;;;2.95;100.00;92587.03;5482007;26;20008;-77
2024/04/19 02:40:23;;;;;;;14.20;8.82;;;;;;;3.03;100.00;92589.50;5480892;26;20009;-78
2024/04/19 02:42:49;;;;;;;10.55;7.78;;;;;;;3.02;100.00;92572.66;5472304;26;20002;-78
2024/04/19 02:45:14;;;;;;;13.98;8.02;;;;;;;2.31;100.00;92465.00;5480858;26;20342;-77
2024/04/19 02:47:40;;;;;;;15.70;8.48;;;;;;;3.13;100.00;92570.63;5479937;26;19999;-78
2024/04/19 02:50:05;;;;;;;13.75;8.25;;;;;;;2.98;100.00;92548.66;5468648;26;20006;-77
2024/04/19 02:52:31;;;;;;;12.90;8.05;;;;;;;3.20;100.00;92574.03;5481919;26;19998;-77
2024/04/19 02:54:56;;;;;;;15.68;9.25;;;;;;;3.22;100.00;92561.94;5480492;26;20363;-77
2024/04/19 02:57:22;;;;;;;15.40;8.57;;;;;;;3.15;100.00;92550.97;5477458;26;20010;-77
2024/04/19 02:59:48;;;;;;;16.70;9.75;;;;;;;3.41;100.00;92575.81;5480517;26;20458;-76
2024/04/19 03:02:14;;;;;;;15.32;10.10;;;;;;;3.26;100.00;92549.69;5481497;26;20002;-77
2024/04/19 03:04:39;;;;;;;17.23;9.38;;;;;;;3.47;100.00;92579.34;5478171;26;20028;-77
2024/04/19 03:07:05;;;;;;;15.73;9.48;;;;;;;3.50;100.00;92580.75;5477592;26;20026;-77
2024/04/19 03:09:30;;;;;;;13.05;8.63;;;;;;;3.31;100.00;92557.53;5480325;26;20005;-77
2024/04/19 03:11:56;;;;;;;10.88;7.95;;;;;;;3.47;100.00;92566.66;5472002;26;20013;-77
2024/04/19 03:14:21;;;;;;;12.90;9.43;;;;;;;3.52;100.00;92566.13;5479856;26;20026;-77
2024/04/19 03:16:50;;;;;;;11.00;8.35;;;;;;;3.63;100.00;92582.63;5473184;26;20013;-77
2024/04/19 03:19:16;;;;;;;12.65;8.70;;;;;;;3.40;100.00;92538.69;5480960;26;19998;-77
2024/04/19 03:21:41;;;;;;;12.32;8.50;;;;;;;3.47;100.00;92552.22;5470056;26;20055;-77
2024/04/19 03:24:07;;;;;;;10.55;7.75;;;;;;;3.42;100.00;92551.97;5468968;26;20026;-77
2024/04/19 03:26:34;;;;;;;10.85;8.45;;;;;;;3.64;100.00;92569.75;5477146;26;20009;-77
2024/04/19 03:28:59;;;;;;;11.80;8.45;;;;;;;3.51;100.00;92546.78;5484246;26;19994;-77
2024/04/19 03:31:51;;;;;;;11.50;8.20;;;;;;;3.62;100.00;92564.06;5479096;26;20022;-77
2024/04/19 03:34:16;;;;;;;13.30;7.97;;;;;;;3.81;100.00;92605.84;5460142;26;20524;-77
2024/04/19 03:36:42;;;;;;;12.13;7.78;;;;;;;3.83;100.00;92606.44;5484731;26;19994;-76
2024/04/19 03:39:09;;;;;;;12.15;8.50;;;;;;;3.81;100.00;92599.97;5482671;26;20067;-77
2024/04/19 03:41:37;;;;;;;14.25;9.30;;;;;;;3.77;100.00;92601.31;5480687;26;20005;-77
2024/04/19 03:46:47;;;;;;;18.40;10.15;;;;;;;3.79;100.00;92604.47;5481047;26;20039;-76
2024/04/19 03:49:12;;;;;;;14.07;8.68;;;;;;;3.71;100.00;92583.28;5484151;26;20002;-77
2024/04/19 03:51:38;;;;;;;12.98;8.25;;;;;;;3.51;100.00;92560.25;5477980;26;19998;-77
2024/04/19 03:54:03;;;;;;;13.88;8.27;;;;;;;3.78;100.00;92596.03;5470595;26;20017;-77
2024/04/19 03:56:31;;;;;;;14.85;9.73;;;;;;;3.84;100.00;92597.84;5476193;26;20017;-76
2024/04/19 03:58:57;;;;;;;13.00;8.65;;;;;;;4.01;100.00;92631.41;5480889;26;20070;-76
2024/04/19 04:01:22;;;;;;;12.98;8.52;;;;;;;4.04;100.00;92626.94;5482649;26;20418;-76
2024/04/19 04:03:52;;;;;;;13.95;9.48;;;;;;;4.01;100.00;92626.34;5479012;26;19998;-76
2024/04/19 04:06:18;;;;;;;12.65;8.60;;;;;;;3.79;100.00;92584.91;5480806;26;20308;-76
2024/04/19 04:08:45;;;;;;;16.10;8.63;;;;;;;3.69;100.00;92570.00;5483041;26;20400;-75
2024/04/19 04:11:12;;;;;;;15.02;9.15;;;;;;;3.51;100.00;92555.19;5481005;26;20338;-77
2024/04/19 04:13:38;;;;;;;13.23;9.35;;;;;;;3.92;100.00;92606.31;5480476;26;20007;-77
2024/04/19 04:16:06;;;;;;;16.55;8.68;;;;;;;4.03;100.00;92625.38;5482586;26;19998;-77
2024/04/19 04:18:31;;;;;;;13.32;8.05;;;;;;;3.77;100.00;92584.31;5483553;26;19994;-77
2024/04/19 04:20:57;;;;;;;10.45;7.13;;;;;;;3.62;100.00;92564.06;5472266;26;20009;-76
2024/04/19 04:23:22;;;;;;;11.63;7.78;;;;;;;3.92;100.00;92601.22;5481801;26;19998;-76
2024/04/19 04:25:48;;;;;;;14.40;7.95;;;;;;;3.66;100.00;92557.63;5478549;26;20009;-76
2024/04/19 04:28:13;;;;;;;11.98;7.22;;;;;;;3.41;100.00;92511.53;5480836;26;20006;-76
2024/04/19 04:30:39;;;;;;;13.05;8.20;;;;;;;3.94;100.00;92589.13;5485676;26;20311;-78
2024/04/19 04:33:05;;;;;;;14.27;8.65;;;;;;;3.74;100.00;92561.81;5489758;25;20005;-77
2024/04/19 04:35:34;;;;;;;13.60;8.60;;;;;;;4.19;100.00;92626.84;5483093;25;20013;-77
2024/04/19 04:37:59;;;;;;;13.90;8.70;;;;;;;4.33;100.00;92638.69;5489403;26;20006;-76
2024/04/19 04:40:25;;;;;;;15.45;8.73;;;;;;;4.30;100.00;92628.09;5491330;26;20016;-77
2024/04/19 04:42:50;;;;;;;19.02;9.10;;;;;;;4.40;100.00;92643.81;5491354;26;20030;-77
2024/04/19 04:45:16;;;;;;;14.50;9.27;;;;;;;4.45;100.00;92638.16;5498781;26;19997;-76
2024/04/19 04:47:41;;;;;;;15.88;9.68;;;;;;;4.28;100.00;92600.31;5489652;26;19994;-77
2024/04/19 04:50:07;;;;;;;18.17;9.55;;;;;;;4.35;100.00;92598.59;5488260;26;20070;-77
2024/04/19 04:52:33;;;;;;;;;;;;;;;4.79;100.00;92651.88;5485850;25;20013;-76
2024/04/19 04:54:58;;;;;;;17.67;10.38;;;;;;;4.78;100.00;92652.84;5514636;26;19927;-76
2024/04/19 04:57:24;;;;;;;26.00;11.15;;;;;;;4.51;100.00;92601.81;5487512;25;20564;-76
2024/04/19 04:59:49;;;;;;;24.50;11.35;;;;;;;4.65;100.00;92613.66;5479645;26;20005;-76
2024/04/19 05:02:15;;;;;;;23.48;11.85;;;;;;;5.00;100.00;92670.59;5488309;26;20042;-76
2024/04/19 05:04:44;;;;;;;23.02;10.48;;;;;;;4.93;100.00;92647.63;5488657;26;20006;-76
2024/04/19 05:07:10;;;;;;;20.35;12.70;;;;;;;5.14;100.00;92671.44;5491651;26;19997;-76
2024/04/19 05:09:35;;;;;;;21.15;11.45;;;;;;;5.16;100.00;92661.81;5492546;26;20007;-76
2024/04/19 05:12:02;;;;;;;26.90;12.48;;;;;;;5.31;100.00;92675.22;5513639;25;20460;-77
2024/04/19 05:14:27;;;;;;;25.83;12.15;;;;;;;5.14;100.00;92646.75;5481291;25;20658;-77
2024/04/19 05:16:53;;;;;;;28.85;13.57;;;;;;;5.35;100.00;92665.44;5500871;26;20073;-76
2024/04/19 05:19:18;;;;;;;28.88;15.18;;;;;;;5.44;100.00;92668.59;5508467;25;20013;-76
2024/04/19 05:21:45;;;;;;;30.40;15.38;;;;;;;5.32;100.00;92636.03;5471553;25;20447;-77
2024/04/19 05:24:11;;;;;;;30.30;15.73;;;;;;;5.29;100.00;92630.53;5481354;26;20010;-77
2024/04/19 05:26:36;;;;;;;27.05;14.82;;;;;;;5.53;100.00;92674.28;5484854;26;20510;-77
2024/04/19 05:29:02;;;;;;;30.80;15.70;;;;;;;5.43;100.00;92654.28;5494101;26;20464;-76
2024/04/19 05:31:28;;;;;;;28.27;14.68;;;;;;;5.58;100.00;92669.41;5500237;26;20414;-77
2024/04/19 05:33:54;;;;;;;31.92;14.48;;;;;;;5.79;100.00;92683.00;5481235;25;20028;-76
2024/04/19 05:36:19;;;;;;;33.50;14.55;;;;;;;5.81;100.00;92675.94;5493656;26;20014;-77
2024/04/19 05:38:45;;;;;;;26.02;13.48;;;;;;;5.79;100.00;92672.81;5509343;26;20016;-77
2024/04/19 05:41:10;;;;;;;26.00;12.32;;;;;;;5.36;100.00;92649.16;5487753;26;20001;-76
2024/04/19 05:43:36;;;;;;;26.23;13.23;;;;;;;5.71;100.00;92674.56;5499337;26;20019;-77
2024/04/19 05:46:02;;;;;;;24.25;13.10;;;;;;;5.81;100.00;92668.28;5511745;25;20410;-76
2024/04/19 05:48:28;;;;;;;24.02;12.68;;;;;;;5.50;100.00;92611.00;5475307;26;20359;-76
2024/04/19 05:50:53;;;;;;;22.83;12.88;;;;;;;6.05;100.00;92671.28;5481348;26;20005;-77
2024/04/19 05:53:19;;;;;;;26.50;13.18;;;;;;;6.26;100.00;92688.19;5485476;26;19998;-76
2024/04/19 05:55:44;;;;;;;27.83;14.13;;;;;;;6.00;100.00;92634.41;5474613;26;20016;-76
2024/04/19 05:58:10;;;;;;;28.95;15.27;;;;;;;6.41;100.00;92681.13;5496876;26;19993;-76
2024/04/19 06:00:35;;;;;;;27.63;14.93;;;;;;;6.37;100.00;92662.09;5498904;25;20002;-77
2024/04/19 06:03:01;;;;;;;27.63;14.63;;;;;;;6.39;100.00;92644.03;5492020;26;20449;-77
2024/04/19 06:05:26;;;;;;;30.00;14.85;;;;;;;6.58;100.00;92669.72;5504862;25;20001;-77
2024/04/19 06:07:52;;;;;;;31.40;16.30;;;;;;;6.72;100.00;92670.50;5488882;25;20004;-77
2024/04/19 06:10:17;;;;;;;35.72;21.27;;;;;;;6.43;100.00;92612.03;5480396;26;20469;-77
2024/04/19 06:12:43;;;;;;;37.03;19.90;;;;;;;6.63;99.12;92641.84;5501969;25;20009;-77
2024/04/19 06:15:08;;;;;;;45.70;25.05;;;;;;;6.88;99.79;92682.84;5493866;25;20008;-77
2024/04/19 06:17:34;;;;;;;42.50;22.00;;;;;;;6.74;98.72;92640.44;5491111;26;19998;-77
2024/04/19 06:19:59;;;;;;;36.33;20.38;;;;;;;7.00;98.26;92680.47;5483771;26;20050;-77
2024/04/19 06:22:25;;;;;;;37.15;20.95;;;;;;;7.08;100.00;92667.47;5476740;26;20006;-77
2024/04/19 06:24:50;;;;;;;36.85;22.40;;;;;;;7.16;100.00;92648.56;5455131;26;19994;-77
2024/04/19 06:27:16;;;;;;;36.55;22.23;;;;;;;7.52;98.51;92676.34;5456491;26;19994;-77
2024/04/19 06:29:41;;;;;;;34.90;20.05;;;;;;;7.46;99.02;92629.41;5443193;26;20545;-78
2024/04/19 06:32:07;;;;;;;28.23;17.63;;;;;;;7.94;96.47;92678.47;5464527;26;19993;-78
2024/04/19 06:34:32;;;;;;;21.17;13.32;;;;;;;8.02;92.05;92665.47;5470514;25;19998;-78
2024/04/19 06:36:58;;;;;;;23.65;13.75;;;;;;;8.32;89.97;92685.31;5459817;26;19998;-77
2024/04/19 06:39:26;;;;;;;20.92;11.65;;;;;;;8.27;87.59;92641.66;5481083;26;20002;-77
2024/04/19 06:41:57;;;;;;;16.48;9.98;;;;;;;8.51;87.14;92652.06;5455267;26;20706;-77
2024/04/19 06:44:22;;;;;;;13.70;8.38;;;;;;;8.94;84.90;92684.59;5481672;26;20342;-77
2024/04/19 06:46:48;;;;;;;17.40;8.70;;;;;;;8.86;84.95;92626.00;5480633;25;20029;-77
2024/04/19 06:49:13;;;;;;;15.02;7.95;;;;;;;9.49;83.01;92672.78;5458858;26;20446;-77
2024/04/19 06:51:39;;;;;;;8.18;5.75;;;;;;;9.38;75.55;92698.34;5475541;26;19995;-77
2024/04/19 06:54:04;;;;;;;8.00;5.65;;;;;;;8.73;75.95;92649.94;5493990;26;19993;-77
2024/04/19 06:56:30;;;;;;;10.82;6.50;;;;;;;9.40;81.07;92657.94;5475553;26;21242;-77
2024/04/19 06:58:56;;;;;;;12.65;6.57;;;;;;;9.91;79.92;92684.13;5479573;26;20012;-77
2024/04/19 07:01:23;;;;;;;11.20;6.50;;;;;;;9.92;77.73;92633.56;5477082;26;20005;-77
2024/04/19 07:03:51;;;;;;;10.80;7.78;;;;;;;10.56;78.13;92669.75;5492334;25;20460;-77
2024/04/19 07:06:16;;;;;;;12.13;8.02;;;;;;;10.87;78.19;92664.50;5485744;26;20020;-77
2024/04/19 07:08:42;;;;;;;8.50;6.88;;;;;;;10.73;71.95;92632.34;5485181;26;20436;-77
2024/04/19 07:11:08;;;;;;;9.63;6.63;;;;;;;10.97;74.40;92635.66;5492737;26;20017;-76
2024/04/19 07:13:34;;;;;;;12.45;6.47;;;;;;;10.81;70.16;92635.38;5485820;26;20008;-77
2024/04/19 07:15:59;;;;;;;10.82;7.03;;;;;;;11.12;70.90;92645.50;5485731;26;19994;-77
2024/04/19 07:18:25;;;;;;;11.88;6.45;;;;;;;11.40;72.36;92654.25;5484690;26;20002;-77
2024/04/19 07:20:52;;;;;;;9.73;7.45;;;;;;;11.36;71.25;92625.63;5483761;26;19998;-77
2024/04/19 07:23:18;;;;;;;14.43;7.50;;;;;;;11.77;68.01;92664.19;5488671;26;20501;-78
2024/04/19 07:25:43;;;;;;;11.10;7.32;;;;;;;11.74;66.02;92663.84;5477634;25;20002;-78
2024/04/19 07:28:09;;;;;;;11.57;5.97;;;;;;;11.26;65.30;92655.50;5477825;26;20064;-78
2024/04/19 07:30:34;;;;;;;7.50;5.85;;;;;;;11.60;68.76;92643.56;5490428;26;20429;-77
2024/04/19 07:33:00;;;;;;;13.30;9.00;;;;;;;11.43;66.95;92653.03;5512617;26;19994;-77
2024/04/19 07:35:25;;;;;;;8.75;5.88;;;;;;;9.95;67.99;92667.25;5512088;25;20325;-77
2024/04/19 07:37:51;;;;;;;9.48;5.68;;;;;;;10.26;68.04;92624.38;5492466;25;20443;-77
2024/04/19 07:40:16;;;;;;;7.65;5.53;;;;;;;11.05;74.92;92645.59;5492882;25;20002;-77
2024/04/19 07:42:42;;;;;;;8.07;5.13;;;;;;;11.11;67.10;92631.06;5514418;25;20016;-77
2024/04/19 07:45:07;;;;;;;8.05;6.15;;;;;;;11.27;66.42;92639.06;5495234;25;20016;-77
2024/04/19 07:47:33;;;;;;;7.20;5.40;;;;;;;11.52;67.97;92622.56;5491463;25;20046;-77
2024/04/19 07:49:59;;;;;;;10.57;6.55;;;;;;;12.10;71.98;92627.69;5490756;26;21222;-77
2024/04/19 07:52:24;;;;;;;8.80;6.05;;;;;;;12.12;65.10;92623.06;5495418;26;20030;-77
2024/04/19 07:54:50;;;;;;;8.10;5.85;;;;;;;12.59;63.68;92658.03;5491501;26;20448;-77
2024/04/19 07:57:18;;;;;;;9.57;5.47;;;;;;;12.78;67.84;92629.44;5467618;25;21134;-77
2024/04/19 07:59:43;;;;;;;8.30;5.78;;;;;;;12.89;62.79;92625.19;5469027;25;20484;-77
2024/04/19 08:02:08;;;;;;;9.27;4.35;;;;;;;13.28;64.54;92625.16;5493104;25;19997;-77
2024/04/19 08:04:34;;;;;;;6.70;4.72;;;;;;;13.28;58.36;92643.22;5476588;26;21079;-77
2024/04/19 08:06:59;;;;;;;8.00;4.63;;;;;;;13.57;61.93;92635.31;5489064;26;19998;-77
2024/04/19 08:09:27;;;;;;;5.53;4.03;;;;;;;13.79;63.19;92606.09;5488352;26;20454;-77
2024/04/19 08:11:53;;;;;;;5.68;3.75;;;;;;;14.24;61.39;92629.19;5491221;26;20008;-77
2024/04/19 08:14:18;;;;;;;5.10;3.33;;;;;;;14.30;60.88;92603.16;5485558;25;19990;-77
2024/04/19 08:16:43;;;;;;;5.47;3.22;;;;;;;14.47;59.52;92611.78;5496959;26;19990;-77
2024/04/19 08:19:10;;;;;;;6.30;3.63;;;;;;;14.85;55.85;92625.50;5497286;25;20593;-77
2024/04/19 08:21:35;;;;;;;;;;;;;;;14.52;48.42;92658.34;5498617;25;20104;-77
2024/04/19 08:24:02;;;;;;;4.28;2.35;;;;;;;14.72;53.23;92649.94;5485555;26;19931;-77
2024/04/19 08:26:28;;;;;;;4.50;2.50;;;;;;;13.92;51.31;92622.22;5498247;26;20009;-77
2024/04/19 08:28:53;;;;;;;2.90;2.22;;;;;;;12.62;49.47;92664.50;5498638;26;19998;-77
2024/04/19 08:31:19;;;;;;;2.70;2.00;;;;;;;12.93;52.45;92614.19;5494971;26;20002;-77
2024/04/19 08:33:44;;;;;;;3.97;2.90;;;;;;;12.65;57.75;92542.97;5488869;26;19998;-77
2024/04/19 08:36:10;;;;;;;5.80;2.50;;;;;;;13.78;57.94;92635.50;5489537;26;20001;-77
2024/04/19 08:38:35;;;;;;;5.60;2.97;;;;;;;14.27;56.35;92626.13;5493176;26;20816;-78
2024/04/19 08:41:07;;;;;;;4.45;2.55;;;;;;;14.55;51.63;92617.28;5492062;26;20009;-78
2024/04/19 08:43:34;;;;;;;6.47;2.55;;;;;;;14.11;54.39;92645.88;5489729;25;20040;-77
2024/04/19 08:46:01;;;;;;;4.68;2.92;;;;;;;14.10;53.69;92621.06;5495442;25;19994;-77
2024/04/19 08:48:28;;;;;;;5.47;2.75;;;;;;;14.38;52.33;92647.66;5490703;26;20005;-76
2024/04/19 08:50:58;;;;;;;6.18;2.80;;;;;;;12.52;55.09;92538.94;5497344;26;19995;-77
2024/04/19 08:53:25;;;;;;;5.15;3.22;;;;;;;13.57;55.74;92643.03;5499520;25;20056;-76
2024/04/19 08:55:51;;;;;;;5.88;3.78;;;;;;;13.58;58.88;92636.09;5489128;26;20019;-76
2024/04/19 08:58:18;;;;;;;4.68;3.22;;;;;;;13.58;59.56;92559.47;5491194;25;20497;-77
2024/04/19 09:00:44;;;;;;;4.57;2.60;;;;;;;13.99;52.27;92628.72;5489332;26;19998;-76
2024/04/19 09:03:12;;;;;;;3.95;2.90;;;;;;;13.17;48.47;92610.59;5491486;26;20012;-77
2024/04/19 09:05:37;;;;;;;3.75;2.30;;;;;;;13.63;54.41;92644.69;5485910;25;20009;-76
2024/04/19 09:08:05;;;;;;;3.30;2.00;;;;;;;14.11;51.42;92645.88;5491443;25;20481;-76
2024/04/19 09:10:31;;;;;;;4.35;2.15;;;;;;;14.23;53.87;92614.72;5490992;25;20664;-76
2024/04/19 09:12:57;;;;;;;3.05;1.70;;;;;;;14.85;53.96;92617.75;5487053;25;20072;-77
2024/04/19 09:15:27;;;;;;;5.32;2.38;;;;;;;15.30;49.69;92635.53;5491096;26;19998;-77
2024/04/19 09:17:53;;;;;;;2.75;1.65;;;;;;;15.17;47.45;92606.53;5491567;26;20001;-77
2024/04/19 09:20:20;;;;;;;2.78;1.73;;;;;;;14.93;47.46;92635.38;5491875;26;20001;-77
2024/04/19 09:22:46;;;;;;;7.95;2.20;;;;;;;14.98;51.99;92607.97;5487904;26;20043;-77
2024/04/19 09:25:17;;;;;;;5.22;2.10;;;;;;;15.26;50.25;92588.69;5485714;26;20031;-77
2024/04/19 09:27:43;;;;;;;2.70;1.60;;;;;;;15.17;45.45;92616.06;5488084;26;20009;-77
2024/04/19 09:30:10;;;;;;;;;;;;;;;13.59;44.97;92643.59;5488347;26;19999;-77
2024/04/19 09:32:36;;;;;;;2.17;1.30;;;;;;;13.56;47.88;92633.75;5491136;26;19940;-77
2024/04/19 09:35:02;;;;;;;3.15;1.38;;;;;;;12.72;48.26;92625.25;5480892;26;19998;-76
2024/04/19 09:37:29;;;;;;;2.30;1.52;;;;;;;12.47;47.56;92637.53;5496820;26;20367;-76
2024/04/19 09:39:55;;;;;;;2.95;1.60;;;;;;;12.26;48.38;92626.91;5507817;25;20359;-76
2024/04/19 09:42:23;;;;;;;3.38;1.77;;;;;;;12.62;49.38;92582.84;5490928;26;19998;-76
2024/04/19 09:44:50;;;;;;;5.25;3.70;;;;;;;12.72;48.82;92615.69;5496675;26;20479;-77
2024/04/19 09:47:16;;;;;;;2.08;1.30;;;;;;;11.45;49.70;92573.84;5495533;26;20035;-75
2024/04/19 09:49:46;;;;;;;2.20;1.58;;;;;;;11.93;50.43;92604.50;5493457;26;20349;-75
2024/04/19 09:52:19;;;;;;;5.03;1.70;;;;;;;12.38;48.30;92621.69;5486087;26;20017;-76
2024/04/19 09:55:16;;;;;;;2.40;1.60;;;;;;;12.64;49.67;92600.66;5478863;26;19998;-76
2024/04/19 09:57:46;;;;;;;5.32;1.80;;;;;;;13.16;50.41;92591.78;5501970;26;19998;-76
2024/04/19 10:00:14;;;;;;;3.17;1.88;;;;;;;13.46;47.12;92572.50;5494283;25;20032;-77
2024/04/19 11:41:03;;;;;;;2.80;1.10;;;;;;;14.01;39.91;92512.28;6266185;21;1350952;-73
2024/04/19 11:43:30;;;;;;;5.75;1.35;;;;;;;14.47;42.39;92514.38;6325416;22;20003;-74
2024/04/19 11:45:56;;;;;;;1.85;1.10;;;;;;;14.19;39.90;92512.94;6324820;22;20003;-73
2024/04/19 20:28:20;;;;;;;7.40;3.15;;;;;;;8.12;70.02;92269.28;6296561;22;20499;-69
2024/04/19 20:30:45;;;;;;;4.95;2.85;;;;;;;8.02;70.87;92263.91;6319184;22;20000;-69
2024/04/19 20:33:11;;;;;;;5.05;2.83;;;;;;;8.06;70.53;92256.59;6320699;22;19992;-69
2024/04/19 20:35:36;;;;;;;4.60;3.00;;;;;;;8.46;71.33;92288.53;6318043;22;20433;-69
2024/04/19 20:38:02;;;;;;;4.57;2.37;;;;;;;7.95;70.26;92210.28;6321001;22;20072;-70
2024/04/19 20:40:27;;;;;;;5.80;2.65;;;;;;;8.12;70.35;92245.47;6321193;22;20228;-70
2024/04/19 20:42:58;;;;;;;3.83;2.35;;;;;;;8.08;71.00;92254.56;6320052;22;20369;-70
2024/04/19 20:45:24;;;;;;;3.92;2.50;;;;;;;8.21;71.02;92274.09;6320615;22;20093;-70
2024/04/19 20:47:49;;;;;;;4.20;2.20;;;;;;;8.21;70.74;92279.19;6320593;22;20000;-71
2024/04/19 20:50:15;;;;;;;4.45;1.95;;;;;;;8.15;71.12;92288.53;6320324;22;19996;-71
2024/04/19 20:52:46;;;;;;;4.13;2.60;;;;;;;7.91;71.18;92260.28;6320686;22;20409;-72
2024/04/19 20:55:13;;;;;;;6.97;4.68;;;;;;;8.25;71.10;92282.88;6319798;22;20016;-72
2024/04/19 20:57:38;;;;;;;3.05;2.08;;;;;;;7.98;71.35;92245.66;6320720;22;20080;-72
2024/04/19 21:00:07;;;;;;;4.22;2.33;;;;;;;7.88;70.52;92235.94;6320018;22;20008;-72
2024/04/19 21:02:32;;;;;;;3.50;2.42;;;;;;;8.25;70.95;92296.44;6319698;22;20004;-72
2024/04/19 21:04:58;;;;;;;3.63;2.70;;;;;;;8.09;70.41;92246.69;6320273;22;20011;-72
2024/04/19 21:07:23;;;;;;;4.30;2.60;;;;;;;8.21;71.44;92277.44;6321020;22;19996;-72
2024/04/19 21:09:49;;;;;;;4.63;2.55;;;;;;;7.89;71.37;92241.84;6319533;22;20393;-72
2024/04/19 21:12:14;;;;;;;4.45;2.60;;;;;;;8.07;71.14;92261.50;6320313;22;20006;-72
2024/04/19 21:14:40;;;;;;;4.00;2.25;;;;;;;8.29;70.91;92287.34;6319560;22;20000;-71
2024/04/19 21:17:05;;;;;;;5.68;2.22;;;;;;;7.75;70.89;92206.25;6319894;22;20059;-72
2024/04/19 21:19:31;;;;;;;4.50;2.85;;;;;;;7.87;70.54;92241.28;6320230;22;20010;-72
2024/04/19 21:21:56;;;;;;;4.93;2.65;;;;;;;7.75;71.19;92248.91;6320328;22;20409;-72
2024/04/19 21:24:22;;;;;;;4.15;2.90;;;;;;;8.18;70.46;92274.53;6320240;22;20424;-72
2024/04/19 21:26:48;;;;;;;5.22;3.30;;;;;;;7.93;70.71;92226.84;6319707;22;20059;-72
2024/04/19 21:29:13;;;;;;;5.13;2.70;;;;;;;7.86;70.88;92237.16;6318288;22;20473;-72
2024/04/19 21:31:39;;;;;;;3.90;2.65;;;;;;;8.34;70.84;92273.13;6319842;22;20012;-72
2024/04/19 21:34:04;;;;;;;5.90;2.67;;;;;;;8.45;69.73;92277.50;6320380;22;20014;-72
2024/04/19 21:36:30;;;;;;;3.85;2.70;;;;;;;8.35;69.61;92252.44;6320372;22;20000;-72
2024/04/19 21:38:56;;;;;;;5.05;3.10;;;;;;;8.61;73.53;92268.41;6319699;22;20004;-72
2024/04/19 21:41:22;;;;;;;4.45;2.47;;;;;;;8.75;70.34;92265.66;6319493;22;20083;-72
2024/04/19 21:43:47;;;;;;;4.35;2.80;;;;;;;8.63;69.57;92228.03;6319785;22;20418;-72
2024/04/19 21:46:13;;;;;;;4.70;3.20;;;;;;;8.39;69.87;92193.94;6320218;22;20007;-72
2024/04/19 21:48:38;;;;;;;4.88;2.60;;;;;;;8.45;68.80;92228.06;6319534;22;19996;-72
2024/04/19 21:51:07;;;;;;;4.47;2.60;;;;;;;8.41;68.76;92217.50;6319953;22;20000;-72
2024/04/19 21:53:32;;;;;;;3.42;2.65;;;;;;;8.71;70.58;92247.41;6319858;22;20003;-72